Thunder radar more information blitzortung!


Radar de pluja more information rain snow radar


Visita la nostra xarxa de llocs de meteo:

Template documentation
and downloads

And another site



No particular awareness of the weather is required.    There are no Weather-warnings

Pagina Historial Weather Underground text

Diari Resum Setembre 1, 2017 Unitats:  Mètric    Imperial   Tant
« Previous Dia
SegĂźent Dia »
Diari Setmana Mensual Anual Personalitzada
  Maxima: Minima: Media:
Temperatura: 27.8 °C 16.6 °C 22 °C
Punt de rosada: 15.8 °C 8.1 °C 13.6 °C
Humitat: 92 % 39 % 61 %
Wind Speed: 13.7 km/h 0.0 km/h 5.3 km/h
RĂ fegues de vent: 13.7 km/h - -
Vent:- - South
Pression baro: 1018.8 hPa 1014.8 hPa -
Precipitacions: 0.0 mm    
Historical Graphs
 
 
Dades de taula per Setembre 1, 2017
Temps Temperatura Punt de rosada Pression baro Vent Wind Speed RĂ fegues de vent Humitat Rainfall Rate (Hourly)
00:00 19.7 °C 15.8 °C 1017.8 hPa North 3.7 km/h 3.7 km/h 78 % 0.0 mm
00:05 19.6 °C 15.8 °C 1017.8 hPa WNW 1.9 km/h   79 % 0.0 mm
00:10 17.5 °C 15.5 °C 1017.8 hPa NNE 1.6 km/h 3.2 km/h 88 % 0.0 mm
00:20 17.5 °C 15.5 °C 1017.8 hPa Calm   1.6 km/h 88 % 0.0 mm
00:30 17.3 °C 15.3 °C 1017.8 hPa North 1.6 km/h 3.2 km/h 88 % 0.0 mm
00:50 17.3 °C 15.4 °C 1017.8 hPa WSW 1.6 km/h 3.2 km/h 89 % 0.0 mm
01:00 17.3 °C 15.4 °C 1017.8 hPa Calm     89 % 0.0 mm
01:10 17.2 °C 15.4 °C 1017.8 hPa Calm     89 % 0.0 mm
01:20 17.1 °C 15.3 °C 1017.8 hPa Calm   1.6 km/h 89 % 0.0 mm
01:30 17.0 °C 15.2 °C 1017.8 hPa WSW 1.6 km/h 3.2 km/h 89 % 0.0 mm
01:40 17.0 °C 15.2 °C 1017.8 hPa WSW 1.6 km/h 3.2 km/h 89 % 0.0 mm
01:50 17.0 °C 15.3 °C 1017.8 hPa SW 1.6 km/h 3.2 km/h 90 % 0.0 mm
02:00 16.9 °C 15.2 °C 1017.8 hPa SW 1.6 km/h 3.2 km/h 90 % 0.0 mm
02:10 16.9 °C 15.2 °C 1017.8 hPa SW 1.6 km/h 3.2 km/h 90 % 0.0 mm
02:20 16.9 °C 15.4 °C 1017.8 hPa Calm     91 % 0.0 mm
02:30 16.9 °C 15.4 °C 1017.8 hPa Calm   3.2 km/h 91 % 0.0 mm
02:40 16.8 °C 15.5 °C 1017.8 hPa Calm   1.6 km/h 92 % 0.0 mm
02:50 16.8 °C 15.5 °C 1017.8 hPa NNE 3.2 km/h 3.2 km/h 92 % 0.0 mm
03:00 16.9 °C 15.6 °C 1017.8 hPa Calm   4.8 km/h 92 % 0.0 mm
03:10 16.8 °C 15.5 °C 1017.8 hPa Calm   3.2 km/h 92 % 0.0 mm
03:20 16.8 °C 15.5 °C 1016.8 hPa NE 1.6 km/h 4.8 km/h 92 % 0.0 mm
03:30 16.8 °C 15.5 °C 1016.8 hPa NE 1.6 km/h 3.2 km/h 92 % 0.0 mm
03:40 16.8 °C 15.5 °C 1016.8 hPa Calm     92 % 0.0 mm
03:50 16.9 °C 15.6 °C 1017.8 hPa Calm     92 % 0.0 mm
04:00 16.9 °C 15.6 °C 1016.8 hPa Calm   1.6 km/h 92 % 0.0 mm
04:10 17.0 °C 15.5 °C 1016.8 hPa Calm   1.6 km/h 91 % 0.0 mm
04:20 17.0 °C 15.7 °C 1017.8 hPa North 1.6 km/h 1.6 km/h 92 % 0.0 mm
04:30 17.0 °C 15.5 °C 1017.8 hPa SSW 1.6 km/h 4.8 km/h 91 % 0.0 mm
04:40 17.0 °C 15.5 °C 1017.8 hPa Calm   3.2 km/h 91 % 0.0 mm
04:50 17.1 °C 15.8 °C 1018.8 hPa WSW 1.6 km/h 3.2 km/h 92 % 0.0 mm
05:00 16.6 °C 14.8 °C 1018.8 hPa West 1.6 km/h 1.6 km/h 89 % 0.0 mm
05:10 16.8 °C 14.4 °C 1018.8 hPa Calm   3.2 km/h 86 % 0.0 mm
05:20 17.2 °C 14.3 °C 1018.8 hPa WSW 3.2 km/h 4.8 km/h 83 % 0.0 mm
05:30 17.5 °C 13.8 °C 1018.8 hPa WSW 1.6 km/h 3.2 km/h 79 % 0.0 mm
05:40 17.8 °C 13.7 °C 1018.8 hPa Calm   1.6 km/h 77 % 0.0 mm
05:50 18.0 °C 13.7 °C 1018.8 hPa West 1.6 km/h 4.8 km/h 76 % 0.0 mm
06:00 18.0 °C 13.5 °C 1018.8 hPa West 1.6 km/h 3.2 km/h 75 % 0.0 mm
06:10 18.0 °C 13.1 °C 1018.8 hPa Calm   3.2 km/h 73 % 0.0 mm
11:13 19.6 °C 13.3 °C 1018.8 hPa WSW 3.2 km/h 3.2 km/h 67 % 0.0 mm
11:14 19.6 °C 13.3 °C 1018.8 hPa WSW 3.2 km/h 3.2 km/h 67 % 0.0 mm
11:15 19.6 °C 13.6 °C 1018.8 hPa SSW 7.4 km/h 7.4 km/h 68 % 0.0 mm
11:20 19.7 °C 13.4 °C 1018.8 hPa West 5.6 km/h 5.6 km/h 67 % 0.0 mm
11:25 20.0 °C 13.2 °C 1018.8 hPa WSW 5.6 km/h 5.6 km/h 65 % 0.0 mm
11:30 20.1 °C 13.3 °C 1018.8 hPa NNW 5.6 km/h 5.6 km/h 65 % 0.0 mm
11:35 20.4 °C 13.6 °C 1018.8 hPa West 3.7 km/h 3.7 km/h 65 % 0.0 mm
11:40 20.8 °C 13.7 °C 1018.8 hPa SW 1.4 km/h   64 % 0.0 mm
11:45 21.2 °C 14.1 °C 1018.8 hPa WSW 9.3 km/h 9.3 km/h 64 % 0.0 mm
11:46 21.2 °C 14.1 °C 1018.8 hPa WNW 5.6 km/h 5.6 km/h 64 % 0.0 mm
11:51 21.5 °C 14.2 °C 1018.8 hPa SW 5.6 km/h 5.6 km/h 63 % 0.0 mm
11:56 22.0 °C 14.4 °C 1018.8 hPa WSW 5.6 km/h 5.6 km/h 62 % 0.0 mm
12:01 22.1 °C 14.2 °C 1018.8 hPa NNE 5.6 km/h 5.6 km/h 61 % 0.0 mm
12:06 22.3 °C 13.9 °C 1018.8 hPa SW 9.3 km/h 9.3 km/h 59 % 0.0 mm
12:11 22.4 °C 14.0 °C 1017.8 hPa WSW 11.9 km/h 11.9 km/h 59 % 0.0 mm
12:16 22.5 °C 13.8 °C 1017.8 hPa SE 3.7 km/h 3.7 km/h 58 % 0.0 mm
12:21 22.8 °C 13.8 °C 1017.8 hPa WSW 5.6 km/h 5.6 km/h 57 % 0.0 mm
12:26 22.7 °C 13.7 °C 1017.8 hPa West 3.7 km/h 3.7 km/h 57 % 0.0 mm
12:31 22.5 °C 13.6 °C 1017.8 hPa SW 7.4 km/h 7.4 km/h 57 % 0.0 mm
12:36 22.6 °C 13.7 °C 1017.8 hPa SW 5.6 km/h 5.6 km/h 57 % 0.0 mm
12:41 22.4 °C 13.4 °C 1017.8 hPa West 5.6 km/h 5.6 km/h 57 % 0.0 mm
12:46 22.2 °C 13.3 °C 1017.8 hPa West 5.8 km/h 5.8 km/h 57 % 0.0 mm
12:51 21.8 °C 12.9 °C 1017.8 hPa SW 5.6 km/h 5.6 km/h 57 % 0.0 mm
12:56 21.7 °C 13.1 °C 1017.8 hPa SW 7.4 km/h 7.4 km/h 58 % 0.0 mm
13:01 21.3 °C 12.4 °C 1017.8 hPa WSW 9.3 km/h 9.3 km/h 57 % 0.0 mm
13:06 21.3 °C 12.4 °C 1017.8 hPa West 6.1 km/h 6.1 km/h 57 % 0.0 mm
13:11 21.5 °C 12.6 °C 1017.8 hPa WSW 12.2 km/h 12.2 km/h 57 % 0.0 mm
13:16 21.8 °C 12.6 °C 1017.8 hPa WSW 9.3 km/h 9.3 km/h 56 % 0.0 mm
13:21 22.1 °C 12.3 °C 1017.8 hPa WNW 7.4 km/h 7.4 km/h 54 % 0.0 mm
13:26 22.6 °C 12.8 °C 1017.8 hPa WSW 5.6 km/h 5.6 km/h 54 % 0.0 mm
13:31 22.7 °C 12.9 °C 1017.8 hPa West 3.7 km/h 3.7 km/h 54 % 0.0 mm
13:36 23.3 °C 13.4 °C 1017.8 hPa SW 3.7 km/h 3.7 km/h 54 % 0.0 mm
13:41 23.8 °C 13.7 °C 1017.8 hPa WSW 4.2 km/h 4.2 km/h 53 % 0.0 mm
13:46 23.5 °C 13.1 °C 1017.8 hPa SW 7.4 km/h 7.4 km/h 52 % 0.0 mm
13:51 23.4 °C 13.3 °C 1017.8 hPa West 5.6 km/h 5.6 km/h 53 % 0.0 mm
13:56 24.1 °C 13.3 °C 1017.8 hPa WSW 11.1 km/h 11.1 km/h 51 % 0.0 mm
14:01 24.1 °C 13.3 °C 1017.8 hPa SSW 9.3 km/h 9.3 km/h 51 % 0.0 mm
14:06 24.4 °C 13.3 °C 1017.8 hPa SW 5.6 km/h 5.6 km/h 50 % 0.0 mm
14:11 25.0 °C 13.2 °C 1017.8 hPa SSE 7.4 km/h 7.4 km/h 48 % 0.0 mm
14:16 25.1 °C 13.3 °C 1017.8 hPa ENE 5.6 km/h 5.6 km/h 48 % 0.0 mm
14:21 25.6 °C 13.8 °C 1017.8 hPa SW 9.3 km/h 9.3 km/h 48 % 0.0 mm
14:26 25.7 °C 13.9 °C 1017.8 hPa SSW 5.6 km/h 5.6 km/h 48 % 0.0 mm
14:31 26.0 °C 13.8 °C 1017.8 hPa WNW 9.3 km/h 9.3 km/h 47 % 0.0 mm
14:36 26.1 °C 13.9 °C 1017.8 hPa SSE 9.3 km/h 9.3 km/h 47 % 0.0 mm
14:41 26.4 °C 13.8 °C 1017.8 hPa West 3.9 km/h 3.9 km/h 46 % 0.0 mm
14:46 26.5 °C 13.6 °C 1017.8 hPa SW 7.4 km/h 7.4 km/h 45 % 0.0 mm
14:51 26.8 °C 13.9 °C 1017.8 hPa South 9.3 km/h 9.3 km/h 45 % 0.0 mm
14:56 26.9 °C 13.6 °C 1016.8 hPa West 5.6 km/h 5.6 km/h 44 % 0.0 mm
15:01 26.4 °C 12.8 °C 1016.8 hPa SSW 5.6 km/h 5.6 km/h 43 % 0.0 mm
15:06 26.5 °C 12.9 °C 1016.8 hPa ESE 13.0 km/h 13.0 km/h 43 % 0.0 mm
15:11 26.7 °C 13.1 °C 1016.8 hPa West 5.6 km/h 5.6 km/h 43 % 0.0 mm
15:16 26.8 °C 13.5 °C 1016.8 hPa SSW 7.4 km/h 7.4 km/h 44 % 0.0 mm
15:21 26.9 °C 13.3 °C 1016.8 hPa WSW 13.0 km/h 13.0 km/h 43 % 0.0 mm
15:26 27.1 °C 11.9 °C 1015.8 hPa SE 7.4 km/h 7.4 km/h 39 % 0.0 mm
15:31 27.3 °C 12.5 °C 1015.8 hPa East 7.4 km/h 7.4 km/h 40 % 0.0 mm
15:36 26.9 °C 12.2 °C 1015.8 hPa ESE 3.7 km/h 3.9 km/h 40 % 0.0 mm
15:41 26.9 °C 12.2 °C 1015.8 hPa South 11.1 km/h 11.1 km/h 40 % 0.0 mm
15:46 27.4 °C 12.2 °C 1015.8 hPa WSW 9.3 km/h 9.3 km/h 39 % 0.0 mm
15:51 27.3 °C 12.5 °C 1015.8 hPa SW 13.0 km/h 13.0 km/h 40 % 0.0 mm
15:56 27.2 °C 12.4 °C 1015.8 hPa WSW 5.8 km/h 5.8 km/h 40 % 0.0 mm
16:01 27.0 °C 12.2 °C 1015.8 hPa SW 5.6 km/h 5.6 km/h 40 % 0.0 mm
16:06 26.6 °C 12.3 °C 1015.8 hPa SW 7.4 km/h 7.4 km/h 41 % 0.0 mm
16:11 26.2 °C 11.6 °C 1015.8 hPa East 3.7 km/h 3.7 km/h 40 % 0.0 mm
16:16 25.8 °C 11.6 °C 1015.8 hPa SE 7.4 km/h 7.4 km/h 41 % 0.0 mm
16:21 26.2 °C 12.3 °C 1015.8 hPa SW 4.7 km/h 4.7 km/h 42 % 0.0 mm
16:26 26.8 °C 13.2 °C 1015.8 hPa WSW 7.4 km/h 7.4 km/h 43 % 0.0 mm
16:31 27.5 °C 13.1 °C 1015.8 hPa SW 5.6 km/h 5.6 km/h 41 % 0.0 mm
16:36 27.7 °C 13.6 °C 1015.8 hPa WNW 5.6 km/h 5.6 km/h 42 % 0.0 mm
16:41 27.8 °C 13.7 °C 1015.8 hPa SW 13.0 km/h 13.0 km/h 42 % 0.0 mm
16:46 27.5 °C 13.4 °C 1015.8 hPa SSW 11.1 km/h 11.1 km/h 42 % 0.0 mm
16:51 27.1 °C 13.4 °C 1015.8 hPa WSW 11.1 km/h 11.1 km/h 43 % 0.0 mm
16:56 27.2 °C 13.6 °C 1015.8 hPa WSW 7.4 km/h 7.4 km/h 43 % 0.0 mm
17:01 27.5 °C 14.2 °C 1015.8 hPa SSW 9.3 km/h 9.3 km/h 44 % 0.0 mm
17:06 27.3 °C 14.0 °C 1015.8 hPa WSW 11.1 km/h 11.1 km/h 44 % 0.0 mm
17:11 27.1 °C 13.8 °C 1015.8 hPa South 5.6 km/h 5.6 km/h 44 % 0.0 mm
17:16 27.2 °C 14.2 °C 1015.8 hPa WSW 11.1 km/h 11.1 km/h 45 % 0.0 mm
17:21 26.8 °C 14.2 °C 1015.8 hPa SSE 11.1 km/h 11.1 km/h 46 % 0.0 mm
17:26 27.1 °C 14.2 °C 1014.8 hPa SW 9.3 km/h 9.3 km/h 45 % 0.0 mm
17:31 27.1 °C 14.2 °C 1014.8 hPa SW 13.0 km/h 13.0 km/h 45 % 0.0 mm
17:36 26.6 °C 14.1 °C 1014.8 hPa SSW 9.3 km/h 9.3 km/h 46 % 0.0 mm
17:41 26.7 °C 14.1 °C 1014.8 hPa SW 13.0 km/h 13.0 km/h 46 % 0.0 mm
17:46 26.9 °C 14.3 °C 1014.8 hPa WSW 9.3 km/h 9.3 km/h 46 % 0.0 mm
17:51 27.3 °C 14.3 °C 1014.8 hPa WSW 9.3 km/h 9.3 km/h 45 % 0.0 mm
17:56 27.1 °C 13.8 °C 1014.8 hPa SW 9.3 km/h 9.3 km/h 44 % 0.0 mm
18:01 26.9 °C 13.6 °C 1014.8 hPa SSW 11.1 km/h 11.1 km/h 44 % 0.0 mm
18:06 26.8 °C 13.5 °C 1014.8 hPa WSW 9.3 km/h 9.3 km/h 44 % 0.0 mm
18:11 26.7 °C 13.1 °C 1014.8 hPa SSW 9.3 km/h 9.3 km/h 43 % 0.0 mm
18:16 26.5 °C 12.9 °C 1014.8 hPa SW 13.0 km/h 13.0 km/h 43 % 0.0 mm
18:21 26.2 °C 12.6 °C 1014.8 hPa South 9.3 km/h 9.3 km/h 43 % 0.0 mm
18:26 26.4 °C 13.2 °C 1014.8 hPa South 9.3 km/h 9.3 km/h 44 % 0.0 mm
18:31 26.2 °C 12.6 °C 1014.8 hPa SW 9.3 km/h 9.3 km/h 43 % 0.0 mm
18:36 26.2 °C 12.6 °C 1014.8 hPa WSW 9.3 km/h 9.3 km/h 43 % 0.0 mm
18:41 26.1 °C 12.9 °C 1014.8 hPa WSW 9.7 km/h 9.7 km/h 44 % 0.0 mm
18:46 25.7 °C 12.2 °C 1014.8 hPa SW 9.3 km/h 9.3 km/h 43 % 0.0 mm
18:51 25.6 °C 11.7 °C 1014.8 hPa SW 13.7 km/h 13.7 km/h 42 % 0.0 mm
18:56 25.5 °C 12.0 °C 1015.8 hPa South 9.3 km/h 9.3 km/h 43 % 0.0 mm
19:01 25.5 °C 12.3 °C 1015.8 hPa WSW 9.7 km/h 9.7 km/h 44 % 0.0 mm
19:02 25.5 °C 12.3 °C 1015.8 hPa South 9.7 km/h 9.7 km/h 44 % 0.0 mm
19:07 25.2 °C 12.1 °C 1015.8 hPa SSW 7.4 km/h 7.4 km/h 44 % 0.0 mm
19:10 20.3 °C 14.7 °C 1017.8 hPa ESE 1.6 km/h 3.2 km/h 70 % 0.0 mm
19:12 24.9 °C 12.2 °C 1015.8 hPa SSW 9.3 km/h 9.3 km/h 45 % 0.0 mm
19:17 24.8 °C 12.1 °C 1015.8 hPa SW 7.4 km/h 7.4 km/h 45 % 0.0 mm
19:20 20.3 °C 14.7 °C 1017.8 hPa East 1.6 km/h 3.2 km/h 70 % 0.0 mm
19:22 24.5 °C 12.1 °C 1015.8 hPa SW 9.3 km/h 9.3 km/h 46 % 0.0 mm
19:27 24.3 °C 11.9 °C 1015.8 hPa WSW 9.3 km/h 9.3 km/h 46 % 0.0 mm
19:30 20.2 °C 14.6 °C 1017.8 hPa Calm   1.6 km/h 70 % 0.0 mm
19:32 24.2 °C 12.2 °C 1015.8 hPa SSW 9.7 km/h 9.7 km/h 47 % 0.0 mm
19:37 24.0 °C 12.0 °C 1015.8 hPa South 5.6 km/h 5.6 km/h 47 % 0.0 mm
19:40 20.1 °C 14.4 °C 1017.8 hPa Calm   1.6 km/h 70 % 0.0 mm
19:42 23.9 °C 12.2 °C 1015.8 hPa SSW 9.3 km/h 9.3 km/h 48 % 0.0 mm
19:47 23.7 °C 12.1 °C 1015.8 hPa SW 3.9 km/h 3.9 km/h 48 % 0.0 mm
19:50 19.9 °C 14.7 °C 1017.8 hPa North 1.6 km/h 3.2 km/h 72 % 0.0 mm
19:52 23.7 °C 12.1 °C 1015.8 hPa SSW 9.3 km/h 9.3 km/h 48 % 0.0 mm
19:57 23.5 °C 11.8 °C 1015.8 hPa South 2.6 km/h 2.6 km/h 48 % 0.0 mm
20:00 19.6 °C 14.4 °C 1017.8 hPa Calm     72 % 0.0 mm
20:02 23.4 °C 12.1 °C 1015.8 hPa SSW 3.7 km/h 5.3 km/h 49 % 0.0 mm
20:07 23.2 °C 12.2 °C 1015.8 hPa South 5.6 km/h 5.6 km/h 50 % 0.0 mm
20:10 19.6 °C 14.6 °C 1017.8 hPa Calm     73 % 0.0 mm
20:12 23.1 °C 12.1 °C 1015.8 hPa Calm     50 % 0.0 mm
20:17 22.9 °C 12.8 °C 1015.8 hPa ENE 3.7 km/h 3.7 km/h 53 % 0.0 mm
20:20 19.2 °C 14.2 °C 1017.8 hPa Calm   3.2 km/h 73 % 0.0 mm
20:22 22.4 °C 13.7 °C 1015.8 hPa SW 9.3 km/h 9.3 km/h 58 % 0.0 mm
20:27 22.2 °C 13.8 °C 1015.8 hPa ESE 13.0 km/h 13.0 km/h 59 % 0.0 mm
20:30 19.1 °C 14.3 °C 1017.8 hPa Calm   1.6 km/h 74 % 0.0 mm
20:32 22.0 °C 14.1 °C 1015.8 hPa ESE 9.3 km/h 9.3 km/h 61 % 0.0 mm
20:37 21.8 °C 14.2 °C 1015.8 hPa ESE 9.3 km/h 9.3 km/h 62 % 0.0 mm
20:40 19.2 °C 14.4 °C 1017.8 hPa SW 1.6 km/h 3.2 km/h 74 % 0.0 mm
20:42 21.7 °C 14.1 °C 1015.8 hPa East 6.1 km/h 6.9 km/h 62 % 0.0 mm
20:47 21.7 °C 14.6 °C 1015.8 hPa ESE 13.0 km/h 13.0 km/h 64 % 0.0 mm
20:50 18.8 °C 14.3 °C 1017.8 hPa SSW 3.2 km/h 3.2 km/h 75 % 0.0 mm
20:52 21.5 °C 14.4 °C 1015.8 hPa East 7.4 km/h 7.4 km/h 64 % 0.0 mm
20:57 21.5 °C 14.7 °C 1015.8 hPa ESE 6.9 km/h 6.9 km/h 65 % 0.0 mm
21:00 18.9 °C 14.6 °C 1017.8 hPa Calm   3.2 km/h 76 % 0.0 mm
21:02 21.4 °C 14.8 °C 1015.8 hPa ENE 9.5 km/h 9.5 km/h 66 % 0.0 mm
21:07 21.3 °C 14.4 °C 1015.8 hPa East 7.4 km/h 7.4 km/h 65 % 0.0 mm
21:10 19.0 °C 14.4 °C 1017.8 hPa Calm     75 % 0.0 mm
21:12 21.3 °C 14.7 °C 1016.8 hPa ESE 9.3 km/h 9.3 km/h 66 % 0.0 mm
21:17 21.3 °C 14.7 °C 1016.8 hPa ESE 7.4 km/h 7.4 km/h 66 % 0.0 mm
21:20 19.1 °C 13.7 °C 1017.8 hPa Calm   1.6 km/h 71 % 0.0 mm
21:22 21.3 °C 14.7 °C 1016.8 hPa ESE 3.9 km/h 5.3 km/h 66 % 0.0 mm
21:27 21.3 °C 14.7 °C 1016.8 hPa ESE 3.9 km/h 5.3 km/h 66 % 0.0 mm
21:30 19.4 °C 13.1 °C 1017.8 hPa NNE 1.6 km/h 1.6 km/h 67 % 0.0 mm
21:32 21.3 °C 14.7 °C 1016.8 hPa ESE 3.9 km/h 5.3 km/h 66 % 0.0 mm
21:37 21.3 °C 14.7 °C 1016.8 hPa ESE 3.9 km/h 5.3 km/h 66 % 0.0 mm
21:40 19.4 °C 12.9 °C 1017.8 hPa NNE 1.6 km/h 3.2 km/h 66 % 0.0 mm
21:42 21.3 °C 14.7 °C 1016.8 hPa ESE 3.9 km/h 5.3 km/h 66 % 0.0 mm
21:47 21.3 °C 14.7 °C 1016.8 hPa ESE 3.9 km/h 5.3 km/h 66 % 0.0 mm
21:50 19.2 °C 12.4 °C 1017.8 hPa WSW 1.6 km/h 3.2 km/h 65 % 0.0 mm
21:52 21.3 °C 14.7 °C 1016.8 hPa ESE 3.9 km/h 5.3 km/h 66 % 0.0 mm
21:57 21.3 °C 14.7 °C 1016.8 hPa ESE 3.9 km/h 5.3 km/h 66 % 0.0 mm
22:00 19.0 °C 12.1 °C 1016.8 hPa WSW 3.2 km/h 3.2 km/h 64 % 0.0 mm
22:02 21.3 °C 14.7 °C 1016.8 hPa ESE 3.9 km/h 5.3 km/h 66 % 0.0 mm
22:07 21.3 °C 14.7 °C 1016.8 hPa ESE 3.9 km/h 5.3 km/h 66 % 0.0 mm
22:10 19.0 °C 11.1 °C 1016.8 hPa WSW 1.6 km/h 4.8 km/h 60 % 0.0 mm
22:12 21.3 °C 14.7 °C 1016.8 hPa ESE 3.9 km/h 5.3 km/h 66 % 0.0 mm
22:17 21.3 °C 14.7 °C 1016.8 hPa ESE 3.9 km/h 5.3 km/h 66 % 0.0 mm
22:20 18.9 °C 10.7 °C 1017.8 hPa WSW 4.8 km/h 4.8 km/h 59 % 0.0 mm
22:22 21.3 °C 14.7 °C 1016.8 hPa ESE 3.9 km/h 5.3 km/h 66 % 0.0 mm
22:27 21.3 °C 14.7 °C 1016.8 hPa ESE 3.9 km/h 5.3 km/h 66 % 0.0 mm
22:30 18.6 °C 10.4 °C 1017.8 hPa Calm   3.2 km/h 59 % 0.0 mm
22:32 21.3 °C 14.7 °C 1016.8 hPa ESE 3.9 km/h 5.3 km/h 66 % 0.0 mm
22:37 21.3 °C 14.7 °C 1016.8 hPa ESE 3.9 km/h 5.3 km/h 66 % 0.0 mm
22:40 18.6 °C 10.2 °C 1017.8 hPa WSW 3.2 km/h 4.8 km/h 58 % 0.0 mm
22:42 21.3 °C 14.7 °C 1016.8 hPa ESE 3.9 km/h 5.3 km/h 66 % 0.0 mm
22:47 21.3 °C 14.7 °C 1016.8 hPa ESE 3.9 km/h 5.3 km/h 66 % 0.0 mm
22:50 18.5 °C 9.6 °C 1017.8 hPa West 3.2 km/h 4.8 km/h 56 % 0.0 mm
22:52 21.3 °C 14.7 °C 1016.8 hPa ESE 3.9 km/h 5.3 km/h 66 % 0.0 mm
22:57 21.3 °C 14.7 °C 1016.8 hPa ESE 3.9 km/h 5.3 km/h 66 % 0.0 mm
23:00 18.3 °C 9.4 °C 1016.8 hPa West 3.2 km/h 6.4 km/h 56 % 0.0 mm
23:02 21.3 °C 14.7 °C 1016.8 hPa ESE 3.9 km/h 5.3 km/h 66 % 0.0 mm
23:07 21.3 °C 14.7 °C 1016.8 hPa ESE 3.9 km/h 5.3 km/h 66 % 0.0 mm
23:10 18.0 °C 8.6 °C 1016.8 hPa West 1.6 km/h 4.8 km/h 54 % 0.0 mm
23:12 21.3 °C 14.7 °C 1016.8 hPa ESE 3.9 km/h 5.3 km/h 66 % 0.0 mm
23:17 21.3 °C 14.7 °C 1016.8 hPa ESE 3.9 km/h 5.3 km/h 66 % 0.0 mm
23:20 17.7 °C 8.6 °C 1017.8 hPa WNW 3.2 km/h 4.8 km/h 55 % 0.0 mm
23:22 21.3 °C 14.7 °C 1016.8 hPa ESE 3.9 km/h 5.3 km/h 66 % 0.0 mm
23:27 21.3 °C 14.7 °C 1016.8 hPa ESE 3.9 km/h 5.3 km/h 66 % 0.0 mm
23:30 17.4 °C 8.3 °C 1017.8 hPa West 1.6 km/h 4.8 km/h 55 % 0.0 mm
23:32 21.3 °C 14.7 °C 1016.8 hPa ESE 3.9 km/h 5.3 km/h 66 % 0.0 mm
23:37 21.3 °C 14.7 °C 1016.8 hPa ESE 3.9 km/h 5.3 km/h 66 % 0.0 mm
23:40 17.0 °C 8.2 °C 1017.8 hPa WSW 1.6 km/h 4.8 km/h 56 % 0.0 mm
23:42 21.3 °C 14.7 °C 1016.8 hPa ESE 3.9 km/h 5.3 km/h 66 % 0.0 mm
23:47 21.3 °C 14.7 °C 1016.8 hPa ESE 3.9 km/h 5.3 km/h 66 % 0.0 mm
23:50 16.7 °C 8.1 °C 1018.8 hPa WSW 1.6 km/h 4.8 km/h 57 % 0.0 mm
23:52 21.3 °C 14.7 °C 1016.8 hPa ESE 3.9 km/h 5.3 km/h 66 % 0.0 mm
23:57 21.3 °C 14.7 °C 1016.8 hPa ESE 3.9 km/h 5.3 km/h 66 % 0.0 mm
Meteo Sesrovires
Elogis d' Weather Underground - 3.75 mb

Guio original per  Jim McMurry - jmcmurry@mwt.net Adaptat per a la plantilla per  Wim van der Kuil - Leuven-Template.eu

Trobareu la nostra informacio del temps tambe a:

Weather Underground

AWEKAS